Time;durP1;ratioP1;P1;durP2;ratioP2;P2;SDS_P1;SDS_P2;PMS_P1;PMS_P2;Temp;Humidity;BMP_temperature;BMP_pressure;BME280_temperature;BME280_humidity;BME280_pressure;Samples;Min_cycle;Max_cycle;Signal;HPM_P1;HPM_P2
2022/09/14 00:02:19;;;;;;;7.12;2.60;;;;;;;20.14;48.54;98143.13;4487353;31;20124;-82
2022/09/14 00:04:44;;;;;;;7.45;2.90;;;;;;;20.07;48.82;98150.13;4487538;31;20085;-82
2022/09/14 00:07:09;;;;;;;7.75;2.83;;;;;;;19.74;49.83;98148.13;4487548;31;20111;-82
2022/09/14 00:09:35;;;;;;;7.50;3.05;;;;;;;19.97;49.14;98143.06;4486287;32;20161;-82
2022/09/14 00:12:00;;;;;;;8.55;3.10;;;;;;;20.06;48.83;98138.59;4487431;31;20088;-82
2022/09/14 00:14:26;;;;;;;6.55;2.40;;;;;;;20.14;48.53;98137.78;4487471;31;20111;-82
2022/09/14 00:16:51;;;;;;;8.23;2.50;;;;;;;20.16;48.56;98143.81;4487249;31;20476;-82
2022/09/14 00:19:25;;;;;;;7.53;2.80;;;;;;;20.15;48.50;98137.62;4487638;31;20137;-82
2022/09/14 00:21:53;;;;;;;8.98;2.83;;;;;;;20.21;48.46;98138.84;4487559;31;20107;-82
2022/09/14 00:24:19;;;;;;;9.55;2.92;;;;;;;20.21;48.50;98133.47;4487374;31;20084;-82
2022/09/14 00:26:44;;;;;;;9.45;2.85;;;;;;;20.16;48.55;98120.56;4487502;31;20096;-82
2022/09/14 00:29:10;;;;;;;8.90;2.65;;;;;;;20.11;48.49;98117.56;4487266;31;20114;-82
2022/09/14 00:31:36;;;;;;;8.80;2.70;;;;;;;20.12;48.30;98119.22;4487522;31;20462;-82
2022/09/14 00:34:03;;;;;;;7.05;2.70;;;;;;;20.16;48.19;98115.22;4487178;31;20080;-82
2022/09/14 00:36:29;;;;;;;7.85;2.72;;;;;;;20.09;48.34;98114.22;4487083;32;20092;-82
2022/09/14 00:38:55;;;;;;;7.93;2.60;;;;;;;20.06;47.95;98114.53;4486224;32;20092;-82
2022/09/14 00:41:30;;;;;;;8.45;2.67;;;;;;;20.10;47.49;98110.53;4486268;32;20080;-83
2022/09/14 00:44:00;;;;;;;6.95;2.40;;;;;;;20.02;47.73;98111.31;4487201;31;20111;-82
2022/09/14 00:46:28;;;;;;;5.90;2.42;;;;;;;19.99;48.03;98106.31;4487237;31;20115;-82
2022/09/14 00:48:56;;;;;;;7.50;2.70;;;;;;;20.05;47.97;98107.53;4486931;31;20091;-82
2022/09/14 00:51:22;;;;;;;7.12;2.25;;;;;;;20.01;48.05;98108.81;4485988;32;20095;-82
2022/09/14 00:53:48;;;;;;;8.45;2.75;;;;;;;19.62;48.89;98102.09;4485898;32;20349;-82
2022/09/14 00:56:13;;;;;;;8.85;2.87;;;;;;;19.81;48.62;98100.19;4487173;31;20105;-83
2022/09/14 00:58:40;;;;;;;8.15;2.85;;;;;;;19.77;48.96;98104.19;4487087;32;20150;-83
2022/09/14 01:01:09;;;;;;;9.18;2.75;;;;;;;19.71;49.20;98094.13;4485762;32;20160;-82
2022/09/14 01:03:35;;;;;;;6.72;2.35;;;;;;;19.73;49.23;98098.31;4486867;31;20115;-82
2022/09/14 01:06:08;;;;;;;7.78;2.75;;;;;;;19.80;49.09;98095.87;4487132;31;20100;-82
2022/09/14 01:09:12;;;;;;;8.52;2.78;;;;;;;19.80;49.32;98095.87;4487083;31;20130;-82
2022/09/14 01:12:09;;;;;;;8.48;2.72;;;;;;;19.82;49.28;98099.22;4487072;31;20470;-82
2022/09/14 01:14:53;;;;;;;10.27;3.10;;;;;;;19.78;49.41;98104.03;4472880;32;20459;-80
2022/09/14 01:17:32;;;;;;;7.25;2.83;;;;;;;19.61;49.74;98097.72;4486112;32;20104;-81
2022/09/14 01:20:21;;;;;;;8.07;2.65;;;;;;;19.42;50.36;98105.97;4485774;32;20138;-82
2022/09/14 01:23:02;;;;;;;7.60;2.72;;;;;;;19.38;50.92;98100.09;4487426;31;20092;-82
2022/09/14 01:25:50;;;;;;;7.15;2.72;;;;;;;19.28;51.03;98096.69;4487032;31;20144;-82
2022/09/14 01:28:39;;;;;;;8.68;2.90;;;;;;;19.40;50.76;98090.09;4487171;31;20556;-82
2022/09/14 01:31:10;;;;;;;9.63;2.92;;;;;;;19.57;50.46;98087.53;4485693;32;20152;-82
2022/09/14 01:33:43;;;;;;;8.35;2.80;;;;;;;19.40;50.88;98086.59;4487186;31;20447;-82
2022/09/14 01:36:10;;;;;;;8.43;2.95;;;;;;;19.49;50.69;98080.31;4485768;32;20160;-82
2022/09/14 01:38:46;;;;;;;8.90;2.93;;;;;;;19.40;50.95;98081.25;4485662;32;20127;-83
2022/09/14 01:41:14;;;;;;;6.78;2.53;;;;;;;19.48;50.85;98073.28;4472461;32;20100;-82
2022/09/14 01:43:43;;;;;;;7.72;2.83;;;;;;;19.54;50.78;98071.81;4485550;32;20095;-82
2022/09/14 01:46:20;;;;;;;6.97;2.50;;;;;;;19.40;51.25;98065.22;4485669;32;20088;-82
2022/09/14 01:49:01;;;;;;;7.57;2.83;;;;;;;19.46;51.03;98072.59;4485502;32;20101;-82
2022/09/14 01:51:40;;;;;;;9.68;2.85;;;;;;;19.40;51.23;98067.88;4486774;32;20088;-82
2022/09/14 01:54:12;;;;;;;9.38;3.03;;;;;;;19.43;51.17;98059.53;4485475;32;20110;-83
2022/09/14 01:56:44;;;;;;;7.90;2.87;;;;;;;19.47;51.05;98060.06;4485493;32;20109;-82
2022/09/14 01:59:15;;;;;;;11.07;3.90;;;;;;;19.49;50.81;98055.41;4485483;32;20210;-82
2022/09/14 02:01:55;;;;;;;8.25;3.60;;;;;;;19.47;50.83;98047.56;4484761;32;20123;-83
2022/09/14 02:04:28;;;;;;;8.45;3.00;;;;;;;19.48;50.92;98045.72;4485372;32;20092;-83
2022/09/14 02:06:55;;;;;;;10.40;3.40;;;;;;;19.47;50.98;98046.72;4485344;32;20103;-83
2022/09/14 02:09:25;;;;;;;10.95;3.70;;;;;;;19.45;51.06;98049.53;4486883;31;20154;-83
2022/09/14 02:11:50;;;;;;;9.18;3.40;;;;;;;19.48;51.01;98045.72;4485562;32;20172;-83
2022/09/14 02:14:16;;;;;;;8.40;3.53;;;;;;;19.44;51.05;98039.84;4485285;32;20432;-83
2022/09/14 02:16:44;;;;;;;9.10;3.60;;;;;;;19.43;51.16;98038.16;4484958;32;20089;-82
2022/09/14 02:19:10;;;;;;;9.82;3.47;;;;;;;19.43;51.19;98043.50;4485093;32;20108;-82
2022/09/14 02:21:37;;;;;;;9.75;3.62;;;;;;;19.40;51.27;98034.00;4485219;32;20104;-83
2022/09/14 02:24:03;;;;;;;9.63;3.83;;;;;;;19.42;51.36;98029.31;4485112;32;20118;-83
2022/09/14 02:26:29;;;;;;;11.12;3.60;;;;;;;19.40;51.48;98033.16;4485110;32;20103;-83
2022/09/14 02:28:55;;;;;;;8.18;3.37;;;;;;;19.41;51.54;98030.34;4485106;32;20108;-83
2022/09/14 02:31:58;;;;;;;11.43;3.87;;;;;;;19.39;51.60;98024.31;4484884;32;20165;-83
2022/09/14 02:34:36;;;;;;;9.63;3.37;;;;;;;19.35;51.74;98022.94;4486341;31;20434;-83
2022/09/14 02:37:07;;;;;;;9.88;3.72;;;;;;;18.88;53.21;98022.47;4486090;32;20104;-83
2022/09/14 02:40:03;;;;;;;11.55;3.95;;;;;;;18.99;52.84;98016.88;4486013;32;20100;-83
2022/09/14 02:42:43;;;;;;;9.18;3.72;;;;;;;18.97;52.97;98014.38;4486077;31;20105;-83
2022/09/14 02:45:38;;;;;;;11.18;3.90;;;;;;;19.02;52.80;98020.06;4486030;32;20125;-82
2022/09/14 02:48:22;;;;;;;10.00;3.80;;;;;;;19.00;52.98;98016.72;4479829;32;20558;-82
2022/09/14 02:51:14;;;;;;;8.93;3.53;;;;;;;18.95;53.30;98011.03;4486142;31;20092;-82
2022/09/14 02:53:58;;;;;;;9.98;3.85;;;;;;;19.01;53.21;98020.25;4485862;32;20492;-81
2022/09/14 02:56:24;;;;;;;8.40;3.30;;;;;;;19.03;53.24;98015.59;4484607;32;20084;-81
2022/09/14 02:58:49;;;;;;;11.38;3.92;;;;;;;19.01;53.30;98007.72;4484480;32;20137;-82
2022/09/14 03:01:18;;;;;;;10.57;3.92;;;;;;;19.09;53.16;98012.28;4485680;31;20114;-82
2022/09/14 03:03:44;;;;;;;11.55;4.03;;;;;;;19.05;53.17;98014.41;4485675;31;20477;-82
2022/09/14 03:06:09;;;;;;;9.90;3.55;;;;;;;18.93;53.56;97997.00;4485771;31;20116;-82
2022/09/14 03:08:35;;;;;;;10.45;3.75;;;;;;;18.77;53.99;98003.00;4485559;31;20102;-82
2022/09/14 03:11:01;;;;;;;10.73;4.28;;;;;;;18.95;53.54;97989.66;4484333;32;20167;-82
2022/09/14 03:13:26;;;;;;;10.48;3.90;;;;;;;18.85;53.66;98000.44;4486537;32;20130;-82
2022/09/14 03:15:52;;;;;;;11.85;3.75;;;;;;;19.02;53.37;98001.38;4487931;32;20132;-82
2022/09/14 03:18:18;;;;;;;10.20;3.67;;;;;;;19.11;53.32;97988.94;4487799;31;20455;-82
2022/09/14 03:20:43;;;;;;;8.73;3.45;;;;;;;19.15;53.39;97984.94;4487767;31;20145;-82
2022/09/14 03:23:10;;;;;;;9.88;3.70;;;;;;;19.26;53.12;97989.19;4486417;32;20132;-82
2022/09/14 03:25:37;;;;;;;9.98;3.40;;;;;;;19.12;53.46;97987.09;4487834;31;20096;-82
2022/09/14 03:28:03;;;;;;;11.85;3.70;;;;;;;19.24;53.23;97991.19;4486577;32;20080;-82
2022/09/14 03:30:28;;;;;;;10.00;3.87;;;;;;;19.24;53.24;97999.19;4487718;31;20178;-82
2022/09/14 03:32:53;;;;;;;11.90;4.25;;;;;;;19.20;53.10;97989.81;4487698;31;20088;-82
2022/09/14 03:35:19;;;;;;;10.23;4.12;;;;;;;19.03;53.30;97992.38;4487636;31;20444;-82
2022/09/14 03:37:45;;;;;;;9.77;4.00;;;;;;;19.12;53.01;97993.25;4487575;32;20141;-82
2022/09/14 03:40:12;;;;;;;12.00;3.42;;;;;;;19.24;52.73;97991.19;4487664;31;20262;-82
2022/09/14 03:42:48;;;;;;;11.68;3.80;;;;;;;19.33;52.64;97984.03;4486509;32;20129;-82
2022/09/14 03:45:15;;;;;;;10.45;3.60;;;;;;;19.31;52.77;97986.88;4487691;31;20466;-83
2022/09/14 03:47:41;;;;;;;9.18;3.37;;;;;;;19.34;52.74;97993.75;4486428;32;20076;-81
2022/09/14 03:50:09;;;;;;;9.35;3.30;;;;;;;19.38;52.70;97985.25;4487623;31;20126;-82
2022/09/14 03:52:35;;;;;;;12.43;3.55;;;;;;;19.39;52.76;97992.28;4487427;31;20100;-81
2022/09/14 03:55:01;;;;;;;9.95;3.60;;;;;;;19.40;52.69;97983.25;4487719;31;20118;-82
2022/09/14 03:57:27;;;;;;;9.77;3.42;;;;;;;19.43;52.49;97990.94;4486340;32;20422;-82
2022/09/14 03:59:52;;;;;;;10.57;3.95;;;;;;;19.47;52.42;97987.94;4487413;32;20108;-81
2022/09/14 04:02:17;;;;;;;9.98;3.58;;;;;;;19.44;52.33;97989.94;4487427;31;20107;-81
2022/09/14 04:04:43;;;;;;;9.85;3.40;;;;;;;19.44;52.39;97992.59;4487352;31;20110;-82
2022/09/14 04:07:08;;;;;;;11.30;3.80;;;;;;;19.45;52.42;97998.78;4486238;32;20124;-82
2022/09/14 04:09:34;;;;;;;9.55;3.40;;;;;;;19.50;52.27;97988.47;4487470;31;20096;-82
2022/09/14 04:11:59;;;;;;;11.52;3.60;;;;;;;19.54;52.13;97987.16;4487442;31;20128;-82
2022/09/14 04:14:25;;;;;;;12.05;3.87;;;;;;;19.57;52.18;97994.84;4487480;31;20418;-82
2022/09/14 04:16:50;;;;;;;11.12;3.65;;;;;;;19.54;52.11;97989.00;4487203;31;20092;-82
2022/09/14 04:19:16;;;;;;;10.32;3.70;;;;;;;19.56;52.02;97978.97;4487221;32;20112;-82
2022/09/14 04:21:42;;;;;;;9.50;3.62;;;;;;;19.57;52.06;97972.66;4487546;31;20480;-82
2022/09/14 04:24:10;;;;;;;9.50;3.60;;;;;;;19.57;52.08;97965.47;4486975;31;20096;-82
2022/09/14 04:26:35;;;;;;;10.60;3.95;;;;;;;19.55;52.01;97964.78;4486449;32;20100;-82
2022/09/14 04:29:01;;;;;;;11.30;4.03;;;;;;;19.51;51.99;97957.25;4487615;31;20538;-82
2022/09/14 04:31:27;;;;;;;13.05;4.35;;;;;;;19.50;51.76;97959.09;4487559;31;20115;-82
2022/09/14 04:33:55;;;;;;;9.18;3.47;;;;;;;19.43;51.61;97958.91;4487615;31;20462;-82
2022/09/14 04:36:27;;;;;;;10.65;4.03;;;;;;;19.34;52.15;97953.69;4487563;31;20085;-82
2022/09/14 04:38:53;;;;;;;8.82;3.60;;;;;;;19.40;52.27;97948.53;4473813;32;20115;-82
2022/09/14 04:41:19;;;;;;;9.18;3.85;;;;;;;19.31;52.38;97954.00;4487493;31;20118;-82
2022/09/14 04:43:46;;;;;;;12.07;3.70;;;;;;;19.40;52.35;97956.53;4487510;31;20091;-82
2022/09/14 04:46:17;;;;;;;10.63;3.80;;;;;;;19.40;52.28;97955.72;4486351;32;20080;-82
2022/09/14 04:48:43;;;;;;;10.70;4.15;;;;;;;19.32;52.32;97951.16;4487115;31;20108;-82
2022/09/14 04:51:20;;;;;;;9.68;3.90;;;;;;;18.99;53.07;97958.16;4485977;32;20089;-83
2022/09/14 04:53:49;;;;;;;9.48;3.30;;;;;;;19.28;52.67;97940.94;4487260;31;20115;-82
2022/09/14 04:56:15;;;;;;;12.98;3.80;;;;;;;19.48;52.47;97941.56;4487140;31;20072;-82
2022/09/14 04:58:45;;;;;;;12.00;3.97;;;;;;;19.59;52.43;97936.75;4486010;32;20101;-83
2022/09/14 05:01:16;;;;;;;10.23;3.50;;;;;;;19.68;52.18;97929.56;4485882;32;20115;-82
2022/09/14 05:03:42;;;;;;;11.43;3.53;;;;;;;19.61;51.65;97942.75;4472641;32;20096;-82
2022/09/14 05:06:13;;;;;;;11.00;4.12;;;;;;;19.81;51.03;97948.69;4486803;31;20088;-82
2022/09/14 05:08:39;;;;;;;12.30;3.92;;;;;;;19.83;50.71;97943.19;4472723;32;20097;-81
2022/09/14 05:11:05;;;;;;;12.05;4.12;;;;;;;19.89;50.47;97941.69;4487085;32;20482;-81
2022/09/14 05:13:31;;;;;;;10.55;3.67;;;;;;;19.98;50.40;97952.25;4486952;32;20088;-82
2022/09/14 05:16:33;;;;;;;10.50;3.28;;;;;;;20.01;50.04;97945.72;4487011;32;20402;-81
2022/09/14 05:19:01;;;;;;;14.57;3.62;;;;;;;20.10;49.95;97952.78;4394795;32;20125;-80
2022/09/14 05:21:28;;;;;;;10.30;3.87;;;;;;;19.89;51.05;97960.41;4394704;32;20094;-81
2022/09/14 05:24:07;;;;;;;8.97;3.93;;;;;;;20.02;50.95;97964.28;4407633;32;20568;-81
2022/09/14 05:26:32;;;;;;;;;;;;;;;20.03;51.07;97960.63;4407568;32;20163;-81
2022/09/14 05:28:59;;;;;;;10.68;3.40;;;;;;;20.23;50.88;97958.47;4407339;32;20293;-81
2022/09/14 05:31:25;;;;;;;11.17;3.70;;;;;;;20.31;50.75;97957.66;4403076;32;20121;-81
2022/09/14 05:33:51;;;;;;;10.07;3.67;;;;;;;20.35;50.53;97942.09;4417735;32;20154;-81
2022/09/14 05:36:17;;;;;;;9.30;3.62;;;;;;;20.45;49.88;97941.94;4406359;32;20082;-81
2022/09/14 05:38:42;;;;;;;11.35;3.70;;;;;;;20.51;49.37;97920.69;4394743;32;20189;-80
2022/09/14 05:41:11;;;;;;;9.43;3.60;;;;;;;20.59;49.06;97922.53;4407226;32;20472;-81
2022/09/14 05:43:37;;;;;;;9.45;3.60;;;;;;;20.66;48.98;97930.75;4407428;32;20126;-81
2022/09/14 05:46:05;;;;;;;10.95;3.78;;;;;;;20.62;49.12;97938.28;4407393;32;20084;-82
2022/09/14 05:48:34;;;;;;;9.63;3.90;;;;;;;20.65;49.50;97935.28;4394726;32;20437;-82
2022/09/14 05:51:01;;;;;;;12.15;4.03;;;;;;;20.32;49.49;97940.59;4394482;32;20129;-89
2022/09/14 05:53:27;;;;;;;11.20;4.18;;;;;;;20.56;49.36;97945.09;4387092;32;20108;-83
2022/09/14 05:56:19;;;;;;;12.48;4.22;;;;;;;20.69;49.33;97954.53;4486539;32;20447;-83
2022/09/14 05:58:45;;;;;;;10.38;3.70;;;;;;;20.48;49.50;97946.97;4483300;32;20492;-85
2022/09/14 06:01:14;;;;;;;11.68;3.97;;;;;;;20.69;49.19;97951.84;4474141;32;20097;-82
2022/09/14 06:03:40;;;;;;;14.07;4.03;;;;;;;20.86;49.07;97955.31;4486248;32;20662;-84
2022/09/14 06:06:07;;;;;;;11.38;3.72;;;;;;;21.00;48.46;97955.47;4486528;32;20130;-83
2022/09/14 06:08:33;;;;;;;9.70;4.30;;;;;;;21.15;48.11;97957.44;4472265;32;20165;-85
2022/09/14 06:11:07;;;;;;;12.13;5.35;;;;;;;20.76;48.41;97948.28;4498367;31;20574;-84
2022/09/14 06:13:33;;;;;;;11.15;4.00;;;;;;;20.99;47.82;97955.63;4486013;31;20186;-84
2022/09/14 06:16:04;;;;;;;11.07;4.10;;;;;;;21.32;47.28;97939.47;4486168;31;20099;-84
2022/09/14 06:18:34;;;;;;;11.70;3.70;;;;;;;21.56;46.53;97936.72;4486724;31;20108;-84
2022/09/14 06:21:00;;;;;;;9.98;4.10;;;;;;;21.78;45.36;97940.47;4501291;31;20116;-84
2022/09/14 06:23:27;;;;;;;11.35;4.43;;;;;;;21.53;45.31;97942.44;4486833;31;20548;-84
2022/09/14 06:25:56;;;;;;;12.55;4.60;;;;;;;21.67;44.63;97942.72;4501476;31;20542;-84
2022/09/14 06:28:23;;;;;;;11.15;4.00;;;;;;;21.70;44.63;97942.37;4487598;31;20160;-84
2022/09/14 06:30:49;;;;;;;10.15;4.07;;;;;;;21.74;44.78;97933.78;4487892;31;20104;-84
2022/09/14 06:33:15;;;;;;;12.45;4.60;;;;;;;21.91;44.86;97937.22;4502184;31;20115;-84
2022/09/14 06:35:41;;;;;;;13.02;4.00;;;;;;;21.99;44.22;97939.84;4487804;31;20084;-84
2022/09/14 06:38:07;;;;;;;12.52;4.60;;;;;;;22.07;44.11;97930.91;4487806;31;20152;-84
2022/09/14 06:40:33;;;;;;;12.00;4.25;;;;;;;22.20;43.56;97941.06;4502093;31;20496;-84
2022/09/14 06:43:01;;;;;;;11.05;4.75;;;;;;;22.18;44.01;97956.50;4501938;31;20088;-84
2022/09/14 06:45:31;;;;;;;9.65;4.55;;;;;;;21.98;43.88;97969.50;4488019;31;20174;-84
2022/09/14 06:47:57;;;;;;;13.27;5.05;;;;;;;22.06;44.01;97963.25;4503626;31;20147;-84
2022/09/14 06:50:23;;;;;;;11.77;4.28;;;;;;;21.96;44.06;97969.72;4489484;31;20123;-85
2022/09/14 06:52:48;;;;;;;12.45;4.25;;;;;;;22.05;44.17;97970.47;4503849;31;20386;-84
2022/09/14 06:55:13;;;;;;;11.32;4.20;;;;;;;22.05;44.30;97970.47;4503697;31;20134;-84
2022/09/14 06:57:39;;;;;;;13.60;4.50;;;;;;;22.02;44.50;97965.50;4503805;31;20421;-84
2022/09/14 07:00:05;;;;;;;10.50;4.10;;;;;;;21.97;44.49;97970.53;4503803;31;20112;-84
2022/09/14 07:02:30;;;;;;;10.90;4.12;;;;;;;21.93;44.71;97953.97;4503794;31;20088;-84
2022/09/14 07:04:56;;;;;;;12.32;4.68;;;;;;;21.95;46.63;97951.13;4503505;31;20135;-84
2022/09/14 07:07:22;;;;;;;12.80;4.65;;;;;;;21.87;47.11;97946.62;4489413;31;20104;-84
2022/09/14 07:09:47;;;;;;;16.58;4.70;;;;;;;21.84;47.00;97951.50;4489373;31;20104;-84
2022/09/14 07:12:13;;;;;;;10.70;4.37;;;;;;;21.75;47.42;97943.50;4503667;31;20096;-84
2022/09/14 07:14:38;;;;;;;16.95;5.50;;;;;;;21.80;47.58;97935.75;4489223;31;20134;-84
2022/09/14 07:17:04;;;;;;;15.27;5.45;;;;;;;21.75;48.21;97929.25;4503642;31;20096;-85
2022/09/14 07:19:29;;;;;;;13.00;5.07;;;;;;;21.75;48.97;97927.44;4503664;31;20132;-84
2022/09/14 07:21:55;;;;;;;12.13;5.10;;;;;;;21.81;49.06;97952.69;4503519;31;20096;-84
2022/09/14 07:24:20;;;;;;;12.37;5.45;;;;;;;;;;4503640;31;20110;-84
2022/09/14 07:26:46;;;;;;;12.13;5.45;;;;;;;21.77;49.51;97970.16;4503574;31;20130;-85
2022/09/14 07:29:17;;;;;;;16.35;5.62;;;;;;;21.71;49.29;97969.00;4503538;31;20209;-84
2022/09/14 07:31:44;;;;;;;13.10;5.35;;;;;;;21.71;49.46;97952.91;4476370;31;20137;-84
2022/09/14 07:34:10;;;;;;;12.75;5.18;;;;;;;21.72;49.50;97945.69;4503585;31;20367;-84
2022/09/14 07:36:36;;;;;;;13.60;5.20;;;;;;;21.81;50.06;97941.97;4503625;31;20251;-84
2022/09/14 07:39:04;;;;;;;14.18;5.07;;;;;;;21.85;50.80;97942.47;4503446;31;20096;-84
2022/09/14 07:41:31;;;;;;;11.90;5.07;;;;;;;21.90;50.46;97948.13;4489090;31;20092;-84
2022/09/14 07:43:59;;;;;;;12.05;4.57;;;;;;;21.94;49.94;97955.66;4503527;31;20076;-84
2022/09/14 07:46:25;;;;;;;12.90;5.18;;;;;;;22.04;49.53;97950.06;4503366;31;20171;-84
2022/09/14 07:48:55;;;;;;;13.32;5.40;;;;;;;22.06;49.47;97941.81;4489165;31;20103;-84
2022/09/14 07:51:21;;;;;;;14.13;5.43;;;;;;;22.14;49.63;97936.41;4503437;31;20096;-84
2022/09/14 07:53:47;;;;;;;14.23;5.20;;;;;;;22.13;49.48;97935.56;4476218;31;20088;-84
2022/09/14 07:56:15;;;;;;;12.77;5.40;;;;;;;22.17;49.28;97939.56;4503222;31;20482;-84
2022/09/14 07:58:41;;;;;;;13.40;5.60;;;;;;;21.93;48.14;97937.88;4502524;31;20112;-84
2022/09/14 08:01:08;;;;;;;13.10;5.80;;;;;;;21.76;48.43;97945.16;4490046;31;179111;-84
2022/09/14 08:03:38;;;;;;;13.32;5.78;;;;;;;21.93;48.21;97955.81;4483041;31;20102;-84
2022/09/14 08:06:18;;;;;;;17.67;5.28;;;;;;;22.04;48.92;97944.69;4489558;31;20490;-84
2022/09/14 08:08:46;;;;;;;14.87;5.43;;;;;;;22.16;49.70;97931.69;4489071;31;20157;-84
2022/09/14 08:11:14;;;;;;;14.07;5.85;;;;;;;22.37;49.22;97925.72;4503280;31;20092;-84
2022/09/14 08:13:41;;;;;;;14.43;6.30;;;;;;;22.45;48.93;97917.59;4503309;31;20077;-84
2022/09/14 08:16:08;;;;;;;12.30;5.40;;;;;;;22.38;49.08;97914.78;4488902;31;20097;-84
2022/09/14 08:18:35;;;;;;;15.60;5.90;;;;;;;22.42;49.00;97909.06;4503430;31;20104;-84
2022/09/14 08:21:06;;;;;;;14.75;6.10;;;;;;;22.30;48.66;97919.38;4503086;31;20083;-84
2022/09/14 08:23:32;;;;;;;13.15;5.93;;;;;;;22.25;48.74;97919.94;4503155;31;20447;-84
2022/09/14 08:26:11;;;;;;;18.02;6.20;;;;;;;22.36;49.07;97918.66;4503143;31;20130;-84
2022/09/14 08:28:37;;;;;;;17.20;6.18;;;;;;;22.49;48.35;97921.56;4488954;31;20699;-84
2022/09/14 08:31:10;;;;;;;14.90;6.35;;;;;;;22.66;48.22;97921.44;4503137;31;20100;-84
2022/09/14 08:33:39;;;;;;;13.32;6.03;;;;;;;22.74;48.06;97918.66;4503261;31;20442;-84
2022/09/14 08:36:06;;;;;;;13.13;6.12;;;;;;;22.84;48.78;97913.88;4488611;31;20127;-84
2022/09/14 08:38:31;;;;;;;13.38;6.18;;;;;;;23.04;48.22;97911.50;4488822;31;20596;-84
2022/09/14 08:40:58;;;;;;;15.10;6.35;;;;;;;23.07;47.66;97911.13;4502962;31;20084;-84
2022/09/14 08:43:25;;;;;;;16.97;6.90;;;;;;;23.27;46.90;97914.09;4503090;31;20114;-84
2022/09/14 08:45:54;;;;;;;13.80;6.65;;;;;;;23.05;46.42;97912.34;4488747;31;20195;-84
2022/09/14 08:48:34;;;;;;;17.42;6.70;;;;;;;23.43;45.77;97902.31;4488659;31;20122;-84
2022/09/14 08:50:59;;;;;;;18.55;6.57;;;;;;;23.78;46.11;97904.37;4488895;31;20096;-84
2022/09/14 08:53:25;;;;;;;16.42;6.72;;;;;;;23.99;46.31;97907.13;4488642;31;20088;-84
2022/09/14 08:55:57;;;;;;;14.27;6.43;;;;;;;23.79;45.95;97895.31;4488633;31;20649;-84
2022/09/14 08:58:31;;;;;;;15.80;6.65;;;;;;;24.07;46.01;97890.88;4502979;31;20132;-84
2022/09/14 09:01:14;;;;;;;14.87;6.97;;;;;;;24.31;44.88;97897.69;4502985;31;20111;-84
2022/09/14 09:04:07;;;;;;;15.25;6.80;;;;;;;24.52;45.34;97896.06;4488449;31;20110;-84
2022/09/14 09:06:57;;;;;;;14.63;6.15;;;;;;;24.63;43.73;97881.22;4502949;31;20485;-84
2022/09/14 09:09:44;;;;;;;14.82;7.15;;;;;;;24.68;44.25;97895.75;4502660;31;20114;-84
2022/09/14 09:12:21;;;;;;;18.37;7.03;;;;;;;24.81;43.45;97900.41;4503065;31;20111;-84
2022/09/14 09:14:50;;;;;;;14.60;6.67;;;;;;;24.91;43.55;97889.28;4488659;31;20075;-84
2022/09/14 09:17:24;;;;;;;16.65;6.82;;;;;;;25.01;43.19;97891.63;4503100;31;20095;-84
2022/09/14 09:19:54;;;;;;;15.35;6.15;;;;;;;25.03;43.28;97898.47;4475674;31;20428;-84
2022/09/14 09:22:21;;;;;;;14.25;5.97;;;;;;;25.03;43.47;97908.41;4502664;31;20079;-84
2022/09/14 09:24:52;;;;;;;21.85;6.50;;;;;;;25.17;43.53;97917.41;4488427;31;20080;-84
2022/09/14 09:27:18;;;;;;;15.93;6.75;;;;;;;25.38;42.80;97922.78;4502901;31;20467;-85
2022/09/14 09:29:43;;;;;;;16.73;6.70;;;;;;;25.15;43.00;97933.81;4502688;31;20114;-84
2022/09/14 09:32:17;;;;;;;14.93;6.70;;;;;;;24.91;43.38;97930.53;4488344;31;20088;-84
2022/09/14 09:34:43;;;;;;;15.98;7.12;;;;;;;24.79;43.02;97940.19;4488381;31;20131;-84
2022/09/14 09:37:17;;;;;;;21.92;7.37;;;;;;;23.74;45.45;97946.97;4488228;31;20135;-85
2022/09/14 09:39:43;;;;;;;13.48;6.72;;;;;;;23.81;45.79;97955.12;4488462;31;20126;-84
2022/09/14 09:42:25;;;;;;;16.98;6.45;;;;;;;24.08;45.17;97958.94;4488109;31;20080;-84
2022/09/14 09:45:00;;;;;;;16.55;6.68;;;;;;;24.35;44.24;97957.38;4502871;31;20099;-84
2022/09/14 09:47:33;;;;;;;13.52;6.57;;;;;;;24.53;44.53;97946.16;4502555;31;20100;-84
2022/09/14 09:50:02;;;;;;;12.93;7.20;;;;;;;24.65;44.19;97938.41;4502747;31;20088;-84
2022/09/14 09:52:28;;;;;;;17.60;6.93;;;;;;;24.29;44.40;97940.12;4488227;31;20375;-84
2022/09/14 09:54:55;;;;;;;14.63;6.05;;;;;;;24.67;44.14;97947.97;4488134;31;20364;-85
2022/09/14 09:57:27;;;;;;;14.55;6.80;;;;;;;24.80;43.81;97941.88;4488119;31;20108;-84
2022/09/14 10:00:09;;;;;;;16.05;6.15;;;;;;;24.64;44.06;97944.81;4502558;31;20118;-84
2022/09/14 10:02:34;;;;;;;14.68;5.75;;;;;;;24.83;43.80;97949.53;4502559;31;20115;-85
2022/09/14 10:05:08;;;;;;;16.70;5.90;;;;;;;24.91;44.49;97948.56;4502201;31;20483;-85
2022/09/14 10:07:54;;;;;;;13.85;6.95;;;;;;;25.01;44.26;97946.34;4502355;31;20446;-85
2022/09/14 10:10:38;;;;;;;14.02;6.12;;;;;;;25.13;43.68;97954.75;4502137;31;20100;-84
2022/09/14 10:13:06;;;;;;;16.42;6.40;;;;;;;25.36;43.64;97956.34;4474925;31;20486;-84
2022/09/14 10:15:33;;;;;;;14.52;7.12;;;;;;;25.56;42.74;97959.97;4488087;31;20106;-84
2022/09/14 10:18:07;;;;;;;14.80;6.80;;;;;;;25.64;42.85;97962.50;4488100;31;20539;-85
2022/09/14 10:20:34;;;;;;;18.23;6.70;;;;;;;25.95;42.48;97963.91;4488026;31;20091;-84
2022/09/14 10:23:17;;;;;;;15.38;6.93;;;;;;;26.17;42.41;97953.78;4487111;31;20096;-84
2022/09/14 10:25:48;;;;;;;17.20;7.47;;;;;;;26.52;41.22;97950.09;4502119;31;20132;-84
2022/09/14 10:28:26;;;;;;;15.60;6.80;;;;;;;26.54;40.62;97942.63;4502100;31;20135;-84
2022/09/14 10:31:00;;;;;;;14.63;7.00;;;;;;;26.76;40.45;97938.72;4502350;31;20431;-84
2022/09/14 10:33:25;;;;;;;16.35;6.80;;;;;;;26.80;40.14;97931.84;4487941;31;20477;-84
2022/09/14 10:36:00;;;;;;;15.43;5.93;;;;;;;26.91;39.66;97930.41;4488036;31;20088;-84
2022/09/14 10:38:42;;;;;;;16.52;5.95;;;;;;;26.95;40.21;97922.72;4501947;31;20165;-84
2022/09/14 10:41:47;;;;;;;16.33;6.80;;;;;;;27.00;40.21;97915.59;4487619;31;20127;-84
2022/09/14 10:44:47;;;;;;;13.23;6.65;;;;;;;26.99;40.11;97918.53;4487547;31;20091;-84
2022/09/14 10:47:53;;;;;;;14.60;6.35;;;;;;;26.96;40.18;97916.25;4502140;31;20149;-84
2022/09/14 10:51:06;;;;;;;12.80;6.25;;;;;;;27.03;40.25;97920.59;4487470;31;20104;-84
2022/09/14 10:53:47;;;;;;;14.55;6.43;;;;;;;27.07;40.14;97924.53;4436919;32;20129;-84
2022/09/14 10:56:54;;;;;;;13.75;6.15;;;;;;;27.05;40.28;97931.22;4437140;32;20093;-84
2022/09/14 10:59:52;;;;;;;15.50;6.65;;;;;;;27.24;39.72;97932.22;4421525;32;20117;-84
2022/09/14 11:02:34;;;;;;;16.35;7.05;;;;;;;27.24;39.94;97926.81;4375922;32;20146;-83
2022/09/14 11:05:18;;;;;;;14.85;6.37;;;;;;;27.26;39.98;97930.97;4351105;32;20269;-84
2022/09/14 11:08:13;;;;;;;14.68;6.12;;;;;;;27.21;40.10;97928.03;4363684;32;20567;-84
2022/09/14 11:11:12;;;;;;;15.10;6.40;;;;;;;27.17;40.26;97929.50;4331572;33;20117;-84
2022/09/14 11:13:49;;;;;;;14.43;6.22;;;;;;;27.05;40.85;97926.63;4331440;33;20103;-84
2022/09/14 11:16:20;;;;;;;15.57;7.20;;;;;;;27.16;40.38;97917.06;4331681;33;20115;-84
2022/09/14 11:18:57;;;;;;;13.65;6.75;;;;;;;26.93;40.99;97913.97;4331268;33;20118;-84
2022/09/14 11:21:41;;;;;;;13.90;7.03;;;;;;;27.03;41.20;97912.50;4331142;33;20502;-84
2022/09/14 11:24:23;;;;;;;15.43;6.72;;;;;;;26.99;41.23;97908.56;4331346;33;20172;-84
2022/09/14 11:27:03;;;;;;;15.38;6.10;;;;;;;26.68;42.16;97912.75;4331517;33;20215;-84
2022/09/14 11:30:05;;;;;;;13.80;5.85;;;;;;;26.87;41.94;97910.25;4331043;33;20123;-84
2022/09/14 11:32:36;;;;;;;14.73;5.78;;;;;;;26.95;41.86;97912.72;4325060;32;20150;-84
2022/09/14 11:35:13;;;;;;;13.43;6.15;;;;;;;26.96;42.06;97910.84;4362435;32;20166;-84
2022/09/14 11:37:46;;;;;;;11.93;5.65;;;;;;;26.90;42.10;97912.50;4362951;32;20132;-84
2022/09/14 11:40:27;;;;;;;14.35;5.87;;;;;;;26.92;42.26;97918.53;4379132;32;20155;-84
2022/09/14 11:43:23;;;;;;;13.65;5.50;;;;;;;26.91;42.45;97900.69;4392887;32;20113;-84
2022/09/14 11:46:05;;;;;;;14.80;6.05;;;;;;;26.88;42.67;97895.69;4380403;32;20166;-84
2022/09/14 11:48:39;;;;;;;14.90;6.65;;;;;;;26.87;42.81;97897.56;4405478;32;20132;-84
2022/09/14 11:51:10;;;;;;;12.50;6.00;;;;;;;26.73;43.08;97897.78;4410486;32;20098;-84